createdAt,value
2022-12-04T00:00:27.335Z,101332.53
2022-12-04T00:02:53.954Z,101330.75
2022-12-04T00:05:20.502Z,101328.16
2022-12-04T00:07:47.155Z,101313.53
2022-12-04T00:10:13.791Z,101311.88
2022-12-04T00:12:40.279Z,101306.56
2022-12-04T00:17:54.337Z,101306.06
2022-12-04T00:20:20.993Z,101304.31
2022-12-04T00:22:47.644Z,101292.19
2022-12-04T00:25:14.293Z,101286.16
2022-12-04T00:27:40.778Z,101276.91
2022-12-04T00:30:07.971Z,101280.34
2022-12-04T00:32:34.506Z,101277.75
2022-12-04T00:35:01.034Z,101280.59
2022-12-04T00:37:28.282Z,101278.91
2022-12-04T00:39:55.126Z,101280.84
2022-12-04T00:42:21.871Z,101278.91
2022-12-04T00:44:48.400Z,101279.75
2022-12-04T00:47:14.918Z,101276.09
2022-12-04T00:49:41.657Z,101281.41
2022-12-04T00:52:08.352Z,101273.38
2022-12-04T00:54:34.900Z,101262.47
2022-12-04T00:57:01.483Z,101272.66
2022-12-04T00:59:28.018Z,101274.06
2022-12-04T01:01:54.553Z,101267.19
2022-12-04T01:04:21.356Z,101270.16
2022-12-04T01:06:48.015Z,101271.09
2022-12-04T01:09:14.628Z,101266.47
2022-12-04T01:11:41.194Z,101263.16
2022-12-04T01:14:07.880Z,101269.09
2022-12-04T01:16:39.019Z,101272.78
2022-12-04T01:19:07.978Z,101267.44
2022-12-04T01:21:34.760Z,101266.59
2022-12-04T01:24:01.522Z,101265.78
2022-12-04T01:26:28.232Z,101260.31
2022-12-04T01:28:54.766Z,101275.47
2022-12-04T01:31:23.198Z,101268.38
2022-12-04T01:33:51.478Z,101272.75
2022-12-04T01:36:21.799Z,101264.81
2022-12-04T01:38:48.587Z,101257.22
2022-12-04T01:41:17.955Z,101263.03
2022-12-04T01:43:44.622Z,101259.50
2022-12-04T01:46:11.492Z,101270.97
2022-12-04T01:48:44.751Z,101261.50
2022-12-04T01:51:18.723Z,101260.69
2022-12-04T01:53:52.542Z,101267.53
2022-12-04T01:56:24.455Z,101266.94
2022-12-04T01:58:54.634Z,101262.09
2022-12-04T02:01:21.485Z,101261.50
2022-12-04T02:03:48.602Z,101271.00
2022-12-04T02:06:15.079Z,101271.13
2022-12-04T02:08:41.667Z,101263.50
2022-12-04T02:11:38.079Z,101266.59
2022-12-04T02:14:07.463Z,101260.56
2022-12-04T02:16:55.948Z,101257.47
2022-12-04T02:19:43.701Z,101263.03
2022-12-04T02:22:47.619Z,101256.41
2022-12-04T02:25:22.898Z,101250.22
2022-12-04T02:28:02.517Z,101241.81
2022-12-04T02:30:31.096Z,101239.19
2022-12-04T02:33:07.282Z,101243.00
2022-12-04T02:35:40.241Z,101244.91
2022-12-04T02:38:15.079Z,101234.81
2022-12-04T02:40:44.520Z,101231.97
2022-12-04T02:43:32.886Z,101224.88
2022-12-04T02:46:03.955Z,101217.06
2022-12-04T02:48:35.698Z,101209.47
2022-12-04T02:51:04.365Z,101202.50
2022-12-04T02:53:36.289Z,101210.19
2022-12-04T02:56:08.118Z,101197.38
2022-12-04T02:58:52.987Z,101202.38
2022-12-04T03:01:28.082Z,101203.31
2022-12-04T03:04:04.928Z,101196.91
2022-12-04T03:06:36.048Z,101188.97
2022-12-04T03:09:12.604Z,101186.59
2022-12-04T03:11:43.616Z,101195.22
2022-12-04T03:14:21.825Z,101201.28
2022-12-04T03:16:50.599Z,101202.00
2022-12-04T03:19:24.375Z,101195.16
2022-12-04T03:22:02.815Z,101196.53
2022-12-04T03:24:59.274Z,101176.16
2022-12-04T03:27:43.346Z,101172.16
2022-12-04T03:30:18.792Z,101170.34
2022-12-04T03:32:50.765Z,101163.50
2022-12-04T03:35:17.209Z,101164.31
2022-12-04T03:37:56.647Z,101156.03
2022-12-04T03:40:40.041Z,101154.47
2022-12-04T03:43:16.448Z,101164.91
2022-12-04T03:45:48.600Z,101169.75
2022-12-04T03:48:23.813Z,101164.91
2022-12-04T03:51:05.103Z,101167.75
2022-12-04T03:53:48.847Z,101147.63
2022-12-04T03:56:23.080Z,101150.09
2022-12-04T03:59:05.201Z,101148.66
2022-12-04T04:01:38.674Z,101142.03
2022-12-04T04:04:09.909Z,101153.53
2022-12-04T04:06:46.870Z,101143.09
2022-12-04T04:09:19.221Z,101138.84
2022-12-04T04:12:05.240Z,101135.38
2022-12-04T04:15:01.838Z,101134.34
2022-12-04T04:17:52.009Z,101135.06
2022-12-04T04:20:44.568Z,101134.59
2022-12-04T04:23:30.312Z,101133.16
2022-12-04T04:26:02.912Z,101122.72
2022-12-04T04:28:36.070Z,101115.88
2022-12-04T04:31:26.208Z,101108.84
2022-12-04T04:34:17.529Z,101108.03
2022-12-04T04:36:55.835Z,101117.50
2022-12-04T04:39:25.656Z,101125.94
2022-12-04T04:41:58.576Z,101114.66
2022-12-04T04:44:31.194Z,101119.06
2022-12-04T04:47:03.830Z,101121.22
2022-12-04T04:49:34.433Z,101115.41
2022-12-04T04:52:03.021Z,101124.16
2022-12-04T04:54:31.917Z,101122.75
2022-12-04T04:56:58.431Z,101120.34
2022-12-04T04:59:24.999Z,101114.59
2022-12-04T05:01:51.910Z,101119.91
2022-12-04T05:04:18.526Z,101114.59
2022-12-04T05:06:45.088Z,101119.31
2022-12-04T05:09:11.716Z,101113.25
2022-12-04T05:11:38.215Z,101107.22
2022-12-04T05:14:06.050Z,101112.91
2022-12-04T05:16:32.768Z,101117.41
2022-12-04T05:19:18.062Z,101117.53
2022-12-04T05:21:44.875Z,101115.63
2022-12-04T05:24:11.397Z,101115.28
2022-12-04T05:26:37.932Z,101120.72
2022-12-04T05:29:04.468Z,101129.25
2022-12-04T05:31:31.159Z,101137.06
2022-12-04T05:33:57.887Z,101128.91
2022-12-04T05:36:24.432Z,101138.13
2022-12-04T05:38:50.920Z,101143.47
2022-12-04T05:41:17.466Z,101138.84
2022-12-04T05:43:44.039Z,101155.44
2022-12-04T05:46:10.867Z,101144.16
2022-12-04T05:48:37.649Z,101153.66
2022-12-04T05:51:09.042Z,101140.59
2022-12-04T05:53:36.152Z,101138.00
2022-12-04T05:56:04.947Z,101146.41
2022-12-04T05:58:34.065Z,101140.38
2022-12-04T06:01:00.618Z,101139.56
2022-12-04T06:03:27.174Z,101131.72
2022-12-04T06:05:53.737Z,101129.84
2022-12-04T06:08:20.355Z,101140.16
2022-12-04T06:10:46.871Z,101131.47
2022-12-04T06:13:13.347Z,101124.16
2022-12-04T06:15:40.626Z,101134.22
2022-12-04T06:18:07.619Z,101129.72
2022-12-04T06:20:34.669Z,101130.78
2022-12-04T06:23:01.276Z,101131.72
2022-12-04T06:25:27.837Z,101146.53
2022-12-04T06:27:54.411Z,101141.56
2022-12-04T06:30:20.933Z,101136.59
2022-12-04T06:32:47.560Z,101137.53
2022-12-04T06:35:14.051Z,101119.66
2022-12-04T06:37:40.606Z,101106.16
2022-12-04T06:40:08.015Z,101105.56
2022-12-04T06:42:34.495Z,101098.09
2022-12-04T06:45:00.975Z,101093.94
2022-12-04T06:47:27.444Z,101092.53
2022-12-04T06:49:54.245Z,101081.16
2022-12-04T06:52:21.194Z,101078.31
2022-12-04T06:54:47.704Z,101079.53
2022-12-04T06:57:14.277Z,101072.63
2022-12-04T06:59:40.786Z,101067.19
2022-12-04T07:02:07.346Z,101071.81
2022-12-04T07:04:33.932Z,101070.75
2022-12-04T07:07:00.484Z,101069.69
2022-12-04T07:09:27.021Z,101057.47
2022-12-04T07:11:55.120Z,101056.41
2022-12-04T07:14:21.737Z,101065.88
2022-12-04T07:16:48.319Z,101072.50
2022-12-04T07:19:14.915Z,101073.22
2022-12-04T07:21:42.514Z,101075.34
2022-12-04T07:24:14.972Z,101082.66
2022-12-04T07:26:41.595Z,101100.09
2022-12-04T07:29:08.127Z,101106.13
2022-12-04T07:31:34.707Z,101097.25
2022-12-04T07:34:01.265Z,101092.28
2022-12-04T07:36:27.921Z,101111.00
2022-12-04T07:38:56.004Z,101108.50
2022-12-04T07:41:22.641Z,101121.06
2022-12-04T07:43:49.115Z,101113.34
2022-12-04T07:46:19.500Z,101122.59
2022-12-04T07:48:46.221Z,101133.97
2022-12-04T07:51:15.730Z,101122.09
2022-12-04T07:53:43.045Z,101132.41
2022-12-04T07:56:11.047Z,101131.69
2022-12-04T07:58:37.912Z,101140.81
2022-12-04T08:01:20.394Z,101135.63
2022-12-04T08:03:49.179Z,101126.47
2022-12-04T08:06:18.870Z,101126.81
2022-12-04T08:08:46.632Z,101129.31
2022-12-04T08:11:16.623Z,101138.56
2022-12-04T08:13:43.163Z,101138.69
2022-12-04T08:16:11.229Z,101152.19
2022-12-04T08:18:38.155Z,101149.00
2022-12-04T08:21:08.456Z,101159.63
2022-12-04T08:23:35.431Z,101156.31
2022-12-04T08:26:02.945Z,101166.63
2022-12-04T08:28:29.666Z,101166.63
2022-12-04T08:31:03.101Z,101173.03
2022-12-04T08:33:29.849Z,101172.19
2022-12-04T08:35:56.368Z,101172.19
2022-12-04T08:38:22.905Z,101180.72
2022-12-04T08:40:49.632Z,101189.25
2022-12-04T08:43:16.352Z,101186.41
2022-12-04T08:45:42.939Z,101190.69
2022-12-04T08:48:09.538Z,101194.13
2022-12-04T08:50:36.086Z,101195.78
2022-12-04T08:53:02.619Z,101199.31
2022-12-04T08:55:29.149Z,101204.53
2022-12-04T08:57:55.660Z,101197.44
2022-12-04T09:00:22.284Z,101198.72
2022-12-04T09:02:49.909Z,101193.84
2022-12-04T09:05:17.705Z,101185.19
2022-12-04T09:07:44.430Z,101190.41
2022-12-04T09:10:11.752Z,101201.22
2022-12-04T09:12:38.227Z,101202.53
2022-12-04T09:15:05.151Z,101191.13
2022-12-04T09:17:31.632Z,101195.97
2022-12-04T09:20:01.137Z,101197.84
2022-12-04T09:22:40.396Z,101196.41
2022-12-04T09:25:14.908Z,101195.22
2022-12-04T09:27:41.801Z,101202.69
2022-12-04T09:30:12.177Z,101190.84
2022-12-04T09:32:39.126Z,101195.81
2022-12-04T09:35:07.310Z,101200.91
2022-12-04T09:37:33.972Z,101196.16
2022-12-04T09:40:00.485Z,101216.31
2022-12-04T09:42:45.853Z,101212.75
2022-12-04T09:45:17.698Z,101198.88
2022-12-04T09:47:50.065Z,101204.22
2022-12-04T09:50:22.493Z,101214.75
2022-12-04T09:53:02.053Z,101204.88
2022-12-04T09:55:35.768Z,101214.50
2022-12-04T09:58:05.672Z,101210.81
2022-12-04T10:00:38.590Z,101208.09
2022-12-04T10:03:12.408Z,101215.22
2022-12-04T10:05:57.432Z,101217.56
2022-12-04T10:08:31.866Z,101225.28
2022-12-04T10:11:33.083Z,101223.25
2022-12-04T10:14:13.851Z,101231.66
2022-12-04T10:17:30.866Z,101230.00
2022-12-04T10:20:40.916Z,101226.56
2022-12-04T10:23:43.225Z,101221.47
2022-12-04T10:26:17.540Z,101222.19
2022-12-04T10:28:55.183Z,101233.88
2022-12-04T10:31:23.198Z,101243.16
2022-12-04T10:33:56.740Z,101238.50
2022-12-04T10:36:29.103Z,101232.44
2022-12-04T10:39:00.166Z,101238.00
2022-12-04T10:41:34.780Z,101243.47
2022-12-04T10:44:01.314Z,101243.03
2022-12-04T10:46:30.566Z,101244.41
2022-12-04T10:49:06.737Z,101239.44
2022-12-04T10:51:44.020Z,101245.75
2022-12-04T10:54:24.136Z,101245.06
2022-12-04T10:57:02.187Z,101242.44
2022-12-04T10:59:29.462Z,101247.16
2022-12-04T11:02:13.353Z,101235.00
2022-12-04T11:04:40.451Z,101232.63
2022-12-04T11:07:23.649Z,101235.00
2022-12-04T11:10:06.697Z,101237.88
2022-12-04T11:12:33.621Z,101228.25
2022-12-04T11:15:13.903Z,101241.75
2022-12-04T11:17:40.791Z,101228.97
2022-12-04T11:20:15.584Z,101242.34
2022-12-04T11:22:59.384Z,101247.25
2022-12-04T11:25:28.798Z,101253.06
2022-12-04T11:27:59.160Z,101259.94
2022-12-04T11:30:30.649Z,101259.53
2022-12-04T11:32:58.048Z,101241.75
2022-12-04T11:35:26.932Z,101239.22
2022-12-04T11:38:05.076Z,101231.75
2022-12-04T11:40:31.717Z,101225.81
2022-12-04T11:43:12.984Z,101232.59
2022-12-04T11:45:39.689Z,101242.34
2022-12-04T11:48:18.933Z,101237.44
2022-12-04T11:50:48.396Z,101229.84
2022-12-04T11:53:30.045Z,101231.50
2022-12-04T11:56:21.349Z,101228.88
2022-12-04T11:59:03.124Z,101217.38
2022-12-04T12:02:00.661Z,101213.91
2022-12-04T12:04:48.914Z,101212.25
2022-12-04T12:07:34.725Z,101210.00
2022-12-04T12:10:10.487Z,101208.25
2022-12-04T12:12:53.742Z,101206.22
2022-12-04T12:15:35.808Z,101201.25
2022-12-04T12:18:30.377Z,101200.00
2022-12-04T12:21:09.906Z,101223.66
2022-12-04T12:24:18.961Z,101206.69
2022-12-04T12:26:50.174Z,101213.28
2022-12-04T12:29:25.532Z,101247.81
2022-12-04T12:32:08.814Z,101233.22
2022-12-04T12:34:35.638Z,101235.56
2022-12-04T12:37:13.713Z,101243.06
2022-12-04T12:39:47.863Z,101237.13
2022-12-04T12:42:45.452Z,101230.72
2022-12-04T12:45:29.039Z,101261.25
2022-12-04T12:48:01.971Z,101275.66
2022-12-04T12:50:58.235Z,101262.00
2022-12-04T12:53:39.840Z,101269.13
2022-12-04T12:56:11.973Z,101270.91
2022-12-04T12:58:45.402Z,101270.91
2022-12-04T13:01:19.945Z,101257.16
2022-12-04T13:03:54.085Z,101260.09
2022-12-04T13:06:34.076Z,101265.22
2022-12-04T13:09:06.995Z,101261.69
2022-12-04T13:11:34.349Z,101250.19
2022-12-04T13:14:03.457Z,101267.03
2022-12-04T13:16:59.068Z,101264.06
2022-12-04T13:19:43.412Z,101258.03
2022-12-04T13:22:35.270Z,101250.19
2022-12-04T13:25:16.964Z,101243.56
2022-12-04T13:28:07.771Z,101243.81
2022-12-04T13:30:56.701Z,101243.09
2022-12-04T13:33:23.163Z,101248.91
2022-12-04T13:36:16.012Z,101245.44
2022-12-04T13:38:59.124Z,101238.25
2022-12-04T13:41:27.220Z,101242.50
2022-12-04T13:43:55.201Z,101253.78
2022-12-04T13:46:36.340Z,101256.19
2022-12-04T13:49:18.229Z,101263.19
2022-12-04T13:51:47.696Z,101249.69
2022-12-04T13:54:14.209Z,101258.34
2022-12-04T13:56:46.638Z,101253.50
2022-12-04T13:59:33.994Z,101258.00
2022-12-04T14:02:07.937Z,101251.09
2022-12-04T14:04:44.358Z,101254.31
2022-12-04T14:08:02.925Z,101256.81
2022-12-04T14:10:36.499Z,101247.09
2022-12-04T14:13:19.255Z,101250.44
2022-12-04T14:15:46.315Z,101239.41
2022-12-04T14:18:13.265Z,101237.88
2022-12-04T14:20:42.010Z,101220.19
2022-12-04T14:23:19.977Z,101226.13
2022-12-04T14:25:46.528Z,101212.75
2022-12-04T14:28:31.163Z,101194.94
2022-12-04T14:31:25.713Z,101187.25
2022-12-04T14:33:58.011Z,101189.84
2022-12-04T14:36:27.571Z,101178.97
2022-12-04T14:39:08.999Z,101174.44
2022-12-04T14:41:35.585Z,101188.44
2022-12-04T14:44:02.159Z,101178.50
2022-12-04T14:46:36.664Z,101185.22
2022-12-04T14:49:40.757Z,101190.81
2022-12-04T14:52:17.718Z,101196.97
2022-12-04T14:55:06.003Z,101191.03
2022-12-04T14:57:55.424Z,101194.97
2022-12-04T15:00:23.994Z,101199.00
2022-12-04T15:02:56.108Z,101187.28
2022-12-04T15:05:26.988Z,101189.75
2022-12-04T15:08:02.609Z,101191.78
2022-12-04T15:10:50.332Z,101203.06
2022-12-04T15:13:30.505Z,101288.19
2022-12-04T15:15:57.528Z,101258.78
2022-12-04T15:18:24.118Z,101263.97
2022-12-04T15:20:51.247Z,101272.28
2022-12-04T15:23:30.103Z,101265.53
2022-12-04T15:25:59.615Z,101212.66
2022-12-04T15:28:28.043Z,101210.63
2022-12-04T15:30:57.589Z,101203.06
2022-12-04T15:33:28.689Z,101210.63
2022-12-04T15:36:02.919Z,101193.06
2022-12-04T15:38:29.798Z,101196.28
2022-12-04T15:41:00.974Z,101200.44
2022-12-04T15:43:39.913Z,101202.22
2022-12-04T15:46:23.233Z,101203.06
2022-12-04T15:48:49.761Z,101208.50
2022-12-04T15:51:20.275Z,101207.44
2022-12-04T15:53:50.260Z,101209.53
2022-12-04T15:56:22.176Z,101215.97
2022-12-04T15:58:56.303Z,101225.44
2022-12-04T16:01:23.411Z,101220.34
2022-12-04T16:03:53.193Z,101217.50
2022-12-04T16:06:23.378Z,101225.78
2022-12-04T16:08:55.834Z,101231.72
2022-12-04T16:11:22.324Z,101238.97
2022-12-04T16:14:04.008Z,101231.97
2022-12-04T16:16:30.829Z,101245.63
2022-12-04T16:18:57.822Z,101241.31
2022-12-04T16:21:31.186Z,101242.88
2022-12-04T16:24:03.124Z,101255.81
2022-12-04T16:26:30.122Z,101255.81
2022-12-04T16:28:56.816Z,101254.25
2022-12-04T16:31:24.674Z,101268.84
2022-12-04T16:33:52.069Z,101261.03
2022-12-04T16:36:19.134Z,101264.34
2022-12-04T16:38:45.823Z,101264.34
2022-12-04T16:41:18.114Z,101263.75
2022-12-04T16:43:44.832Z,101255.81
2022-12-04T16:46:16.388Z,101254.00
2022-12-04T16:48:43.460Z,101250.59
2022-12-04T16:51:16.559Z,101266.25
2022-12-04T16:53:43.639Z,101271.34
2022-12-04T16:56:10.776Z,101280.81
2022-12-04T16:58:37.692Z,101282.50
2022-12-04T17:01:06.880Z,101272.25
2022-12-04T17:03:34.241Z,101279.03
2022-12-04T17:06:01.206Z,101267.75
2022-12-04T17:08:28.215Z,101269.44
2022-12-04T17:10:54.840Z,101265.63
2022-12-04T17:13:21.926Z,101267.19
2022-12-04T17:15:48.608Z,101256.88
2022-12-04T17:18:20.820Z,101259.09
2022-12-04T17:20:48.229Z,101258.63
2022-12-04T17:23:14.887Z,101261.72
2022-12-04T17:25:41.607Z,101252.66
2022-12-04T17:28:08.718Z,101257.31
2022-12-04T17:30:36.436Z,101264.31
2022-12-04T17:33:04.731Z,101263.59
2022-12-04T17:35:31.416Z,101276.66
2022-12-04T17:38:02.295Z,101278.41
2022-12-04T17:40:32.282Z,101282.72
2022-12-04T17:42:58.858Z,101286.16
2022-12-04T17:45:25.544Z,101286.72
2022-12-04T17:47:52.075Z,101270.94
2022-12-04T17:50:18.618Z,101268.31
2022-12-04T17:52:45.166Z,101268.56
2022-12-04T17:55:11.697Z,101266.56
2022-12-04T17:57:38.286Z,101277.00
2022-12-04T18:00:05.556Z,101271.53
2022-12-04T18:02:32.083Z,101268.09
2022-12-04T18:04:59.016Z,101273.91
2022-12-04T18:07:25.727Z,101276.53
2022-12-04T18:09:52.243Z,101273.09
2022-12-04T18:12:18.788Z,101312.00
2022-12-04T18:14:45.339Z,101338.34
2022-12-04T18:17:11.942Z,101328.50
2022-12-04T18:19:38.526Z,101322.56
2022-12-04T18:22:05.141Z,101307.47
2022-12-04T18:24:31.715Z,101311.16
2022-12-04T18:26:58.456Z,101306.66
2022-12-04T18:29:26.599Z,101303.91
2022-12-04T18:31:53.746Z,101309.00
2022-12-04T18:34:20.862Z,101325.50
2022-12-04T18:36:47.547Z,101323.75
2022-12-04T18:39:24.165Z,101309.84
2022-12-04T18:41:51.288Z,101320.16
2022-12-04T18:44:18.001Z,101320.88
2022-12-04T18:46:44.620Z,101315.78
2022-12-04T18:49:11.879Z,101306.84
2022-12-04T18:51:40.769Z,101302.84
2022-12-04T18:54:11.293Z,101310.31
2022-12-04T18:56:38.529Z,101308.53
2022-12-04T18:59:18.279Z,101305.81
2022-12-04T19:01:44.995Z,101291.19
2022-12-04T19:04:13.822Z,101293.59
2022-12-04T19:06:43.648Z,101291.06
2022-12-04T19:09:14.225Z,101288.38
2022-12-04T19:11:41.815Z,101292.75
2022-12-04T19:14:17.523Z,101292.63
2022-12-04T19:16:48.386Z,101295.94
2022-12-04T19:19:15.478Z,101302.09
2022-12-04T19:21:42.093Z,101276.97
2022-12-04T19:24:10.546Z,101288.38
2022-12-04T19:26:37.455Z,101285.38
2022-12-04T19:29:05.464Z,101276.47
2022-12-04T19:31:34.713Z,101289.63
2022-12-04T19:34:01.781Z,101277.28
2022-12-04T19:36:30.896Z,101278.72
2022-12-04T19:38:58.147Z,101282.28
2022-12-04T19:41:27.298Z,101276.22
2022-12-04T19:43:58.935Z,101273.84
2022-12-04T19:46:28.965Z,101277.16
2022-12-04T19:48:58.393Z,101266.00
2022-12-04T19:51:25.858Z,101272.91
2022-12-04T19:53:54.798Z,101257.13
2022-12-04T19:56:24.566Z,101253.53
2022-12-04T19:58:52.377Z,101270.97
2022-12-04T20:01:21.391Z,101274.44
2022-12-04T20:03:47.977Z,101267.81
2022-12-04T20:06:18.363Z,101283.09
2022-12-04T20:08:45.420Z,101269.78
2022-12-04T20:11:15.746Z,101269.22
2022-12-04T20:13:43.385Z,101267.78
2022-12-04T20:16:12.012Z,101261.25
2022-12-04T20:18:40.059Z,101257.00
2022-12-04T20:21:12.874Z,101259.84
2022-12-04T20:23:50.026Z,101254.50
2022-12-04T20:26:19.681Z,101252.03
2022-12-04T20:28:46.605Z,101250.81
2022-12-04T20:31:31.522Z,101247.59
2022-12-04T20:34:00.342Z,101252.97
2022-12-04T20:36:29.066Z,101256.28
2022-12-04T20:39:00.169Z,101256.88
2022-12-04T20:41:28.881Z,101251.50
2022-12-04T20:43:55.941Z,101255.91
2022-12-04T20:46:28.641Z,101268.16
2022-12-04T20:48:55.284Z,101277.03
2022-12-04T20:51:33.084Z,101273.97
2022-12-04T20:54:00.880Z,101276.66
2022-12-04T20:56:30.029Z,101270.50
2022-12-04T20:59:03.974Z,101276.13
2022-12-04T21:01:31.121Z,101277.88
2022-12-04T21:04:01.553Z,101283.34
2022-12-04T21:06:37.273Z,101281.69
2022-12-04T21:09:30.971Z,101276.22
2022-12-04T21:11:58.333Z,101283.81
2022-12-04T21:14:46.194Z,101278.13
2022-12-04T21:17:18.838Z,101279.78
2022-12-04T21:19:47.546Z,101281.56
2022-12-04T21:22:14.873Z,101283.94
2022-12-04T21:24:42.324Z,101280.38
2022-12-04T21:27:13.304Z,101288.19
2022-12-04T21:29:43.169Z,101278.72
2022-12-04T21:32:09.769Z,101289.16
2022-12-04T21:34:36.254Z,101277.75
2022-12-04T21:37:02.864Z,101287.38
2022-12-04T21:39:29.405Z,101281.22
2022-12-04T21:42:14.570Z,101271.69
2022-12-04T21:44:41.063Z,101270.63
2022-12-04T21:47:07.621Z,101263.50
2022-12-04T21:49:34.199Z,101271.22
2022-12-04T21:52:00.698Z,101268.84
2022-12-04T21:54:28.475Z,101270.97
2022-12-04T21:56:55.494Z,101273.44
2022-12-04T21:59:22.629Z,101280.91
2022-12-04T22:01:49.321Z,101276.06
2022-12-04T22:04:16.410Z,101271.09
2022-12-04T22:06:42.988Z,101267.63
2022-12-04T22:09:11.679Z,101284.75
2022-12-04T22:11:41.675Z,101291.72
2022-12-04T22:14:09.797Z,101290.28
2022-12-04T22:16:41.591Z,101281.63
2022-12-04T22:19:09.182Z,101293.50
2022-12-04T22:21:35.741Z,101292.66
2022-12-04T22:24:04.082Z,101292.78
2022-12-04T22:26:31.809Z,101295.25
2022-12-04T22:28:58.394Z,101289.19
2022-12-04T22:31:27.391Z,101282.91
2022-12-04T22:33:56.150Z,101273.41
2022-12-04T22:36:25.651Z,101275.88
2022-12-04T22:39:08.632Z,101279.34
2022-12-04T22:41:36.286Z,101270.53
2022-12-04T22:44:03.321Z,101263.53
2022-12-04T22:46:30.066Z,101263.41
2022-12-04T22:48:58.677Z,101259.03
2022-12-04T22:51:25.228Z,101251.75
2022-12-04T22:53:54.057Z,101247.81
2022-12-04T22:56:23.868Z,101250.66
2022-12-04T22:58:51.013Z,101257.31
2022-12-04T23:01:21.671Z,101257.44
2022-12-04T23:03:49.623Z,101257.69
2022-12-04T23:06:17.994Z,101264.44
2022-12-04T23:08:45.597Z,101255.66
2022-12-04T23:11:17.645Z,101254.44
2022-12-04T23:13:44.768Z,101250.19
2022-12-04T23:16:14.316Z,101248.06
2022-12-04T23:18:44.989Z,101264.44
2022-12-04T23:21:13.351Z,101251.13
2022-12-04T23:23:42.182Z,101254.75
2022-12-04T23:26:15.924Z,101251.56
2022-12-04T23:28:43.578Z,101257.06
2022-12-04T23:31:11.039Z,101254.44
2022-12-04T23:33:39.089Z,101263.00
2022-12-04T23:36:07.070Z,101254.44
2022-12-04T23:38:35.364Z,101259.53
2022-12-04T23:41:16.847Z,101255.03
2022-12-04T23:43:44.638Z,101249.09
2022-12-04T23:46:13.195Z,101250.63
2022-12-04T23:48:41.428Z,101252.03
2022-12-04T23:51:09.174Z,101252.03
2022-12-04T23:53:36.052Z,101239.78
2022-12-04T23:56:06.890Z,101237.44
2022-12-04T23:58:34.901Z,101230.16
